Arkansas City, Kansas
Current Conditions -  °F | °C
As of 4:54 PM on Tuesday 25 Nov 2014 (Local Time) from KWLD Reporting Station
Clear Clear  
Wind Chill: 40°   Ceiling: Unl
Heat Index: 44°   Visibility: 10mi
Dew Point: 28°   Wind: 7mph
Humidity: 53%   Direction: 180°S
Pressure: 30.08"   Gusts: NA
Location:  37.06°N, 97.04°W
Report Text: KWLD 252254Z AUTO 18006KT 10SM CLR 07/M02 A3008 RMK AO2 SLP195 T00671022
Loading
Personal Weather Stations






























Interactive Weather Map New forecast layout! Learn more

10-Day Weather Forecast

Advertisements
Track Severe Weather on mobile